createdAt,value
2018-01-28T00:02:18.205Z,10.67
2018-01-28T00:04:44.525Z,10.57
2018-01-28T00:07:10.820Z,10.20
2018-01-28T00:09:37.883Z,9.80
2018-01-28T00:12:04.938Z,9.60
2018-01-28T00:14:31.286Z,11.33
2018-01-28T00:16:57.594Z,10.53
2018-01-28T00:19:24.687Z,10.27
2018-01-28T00:21:51.815Z,10.20
2018-01-28T00:24:18.129Z,10.10
2018-01-28T00:26:44.455Z,10.43
2018-01-28T00:29:10.822Z,9.90
2018-01-28T00:31:37.095Z,11.03
2018-01-28T00:34:04.160Z,10.87
2018-01-28T00:36:30.451Z,10.83
2018-01-28T00:38:56.752Z,10.20
2018-01-28T00:41:23.050Z,11.20
2018-01-28T00:43:49.600Z,9.87
2018-01-28T00:46:15.879Z,10.40
2018-01-28T00:48:42.943Z,10.70
2018-01-28T00:51:09.975Z,9.77
2018-01-28T00:53:37.038Z,10.60
2018-01-28T00:56:04.064Z,10.80
2018-01-28T00:58:30.356Z,10.87
2018-01-28T01:00:56.665Z,11.60
2018-01-28T01:03:23.000Z,10.00
2018-01-28T01:05:49.284Z,10.60
2018-01-28T01:08:16.354Z,10.73
2018-01-28T01:10:43.404Z,10.73
2018-01-28T01:13:10.444Z,11.80
2018-01-28T01:15:37.475Z,12.23
2018-01-28T01:18:03.756Z,10.40
2018-01-28T01:20:30.121Z,11.37
2018-01-28T01:22:56.395Z,12.50
2018-01-28T01:25:23.439Z,11.70
2018-01-28T01:27:50.496Z,12.00
2018-01-28T01:30:16.810Z,11.93
2018-01-28T01:32:43.842Z,12.10
2018-01-28T01:35:10.877Z,11.50
2018-01-28T01:37:37.157Z,12.17
2018-01-28T01:40:03.452Z,12.57
2018-01-28T01:42:30.506Z,12.37
2018-01-28T01:44:57.551Z,11.10
2018-01-28T01:47:25.616Z,10.70
2018-01-28T01:49:51.908Z,12.30
2018-01-28T01:52:18.190Z,10.83
2018-01-28T01:54:44.521Z,12.27
2018-01-28T01:57:10.861Z,10.90
2018-01-28T01:59:37.156Z,11.60
2018-01-28T02:02:03.436Z,12.27
2018-01-28T02:04:29.724Z,11.90
2018-01-28T02:06:56.880Z,12.53
2018-01-28T02:09:23.188Z,13.60
2018-01-28T02:11:49.458Z,14.20
2018-01-28T02:14:15.759Z,12.40
2018-01-28T02:16:42.056Z,14.00
2018-01-28T02:19:08.380Z,13.50
2018-01-28T02:21:34.676Z,15.20
2018-01-28T02:24:01.227Z,13.10
2018-01-28T02:26:27.523Z,12.77
2018-01-28T02:28:54.567Z,12.77
2018-01-28T02:31:21.629Z,11.17
2018-01-28T02:33:47.914Z,12.10
2018-01-28T02:36:14.237Z,12.87
2018-01-28T02:38:40.597Z,12.10
2018-01-28T02:41:07.685Z,12.70
2018-01-28T02:43:33.968Z,12.70
2018-01-28T02:46:00.285Z,11.47
2018-01-28T02:48:26.571Z,12.00
2018-01-28T02:50:52.871Z,11.93
2018-01-28T02:53:19.928Z,10.97
2018-01-28T02:55:46.280Z,10.10
2018-01-28T02:58:12.565Z,9.50
2018-01-28T03:00:38.890Z,10.50
2018-01-28T03:03:05.193Z,8.43
2018-01-28T03:05:31.484Z,8.43
2018-01-28T03:07:57.778Z,8.67
2018-01-28T03:10:24.884Z,8.10
2018-01-28T03:12:51.208Z,8.80
2018-01-28T03:15:17.509Z,8.57
2018-01-28T03:17:44.586Z,8.93
2018-01-28T03:20:10.917Z,10.13
2018-01-28T03:22:37.201Z,10.23
2018-01-28T03:25:03.505Z,9.23
2018-01-28T03:27:29.848Z,9.13
2018-01-28T03:29:56.163Z,8.93
2018-01-28T03:32:22.541Z,8.77
2018-01-28T03:34:49.605Z,9.63
2018-01-28T03:37:15.917Z,8.97
2018-01-28T03:39:43.000Z,9.40
2018-01-28T03:42:09.323Z,9.00
2018-01-28T03:44:35.607Z,8.57
2018-01-28T03:47:01.921Z,8.10
2018-01-28T03:49:28.223Z,8.67
2018-01-28T03:51:54.528Z,7.70
2018-01-28T03:54:21.556Z,6.53
2018-01-28T03:56:48.596Z,8.00
2018-01-28T03:59:14.895Z,6.57
2018-01-28T04:01:41.645Z,6.73
2018-01-28T04:04:07.933Z,7.40
2018-01-28T04:06:34.238Z,6.97
2018-01-28T04:09:00.547Z,6.57
2018-01-28T04:11:26.837Z,6.53
2018-01-28T04:13:53.120Z,7.47
2018-01-28T04:16:20.159Z,7.00
2018-01-28T04:18:47.201Z,7.40
2018-01-28T04:21:13.477Z,8.10
2018-01-28T04:23:39.801Z,7.90
2018-01-28T04:26:06.069Z,7.60
2018-01-28T04:28:32.369Z,8.93
2018-01-28T04:30:58.656Z,8.47
2018-01-28T04:33:31.972Z,8.13
2018-01-28T04:35:58.288Z,8.83
2018-01-28T04:38:25.326Z,8.17
2018-01-28T04:40:51.600Z,8.63
2018-01-28T04:43:17.879Z,9.50
2018-01-28T04:45:44.963Z,9.00
2018-01-28T04:48:12.007Z,9.63
2018-01-28T04:50:38.319Z,10.00
2018-01-28T04:53:04.646Z,10.13
2018-01-28T04:55:30.924Z,9.70
2018-01-28T04:57:57.249Z,10.33
2018-01-28T05:00:23.563Z,10.43
2018-01-28T05:02:49.919Z,11.10
2018-01-28T05:05:16.236Z,11.67
2018-01-28T05:07:42.549Z,12.30
2018-01-28T05:10:08.865Z,10.57
2018-01-28T05:12:35.907Z,11.10
2018-01-28T05:15:02.229Z,12.50
2018-01-28T05:17:29.251Z,11.77
2018-01-28T05:19:55.610Z,12.40
2018-01-28T05:22:22.652Z,11.97
2018-01-28T05:24:49.692Z,12.00
2018-01-28T05:27:15.995Z,12.63
2018-01-28T05:29:42.301Z,12.77
2018-01-28T05:32:08.600Z,13.40
2018-01-28T05:34:35.631Z,12.70
2018-01-28T05:37:01.910Z,12.30
2018-01-28T05:39:28.195Z,13.83
2018-01-28T05:41:55.226Z,13.37
2018-01-28T05:44:21.524Z,12.80
2018-01-28T05:46:47.811Z,13.47
2018-01-28T05:49:14.842Z,14.37
2018-01-28T05:51:41.875Z,13.70
2018-01-28T05:54:08.159Z,13.50
2018-01-28T05:56:34.442Z,14.80
2018-01-28T05:59:00.726Z,14.80
2018-01-28T06:01:27.015Z,16.13
2018-01-28T06:03:54.036Z,15.20
2018-01-28T06:06:20.340Z,15.00
2018-01-28T06:08:46.652Z,14.70
2018-01-28T06:11:12.938Z,15.53
2018-01-28T06:13:39.224Z,14.00
2018-01-28T06:16:05.558Z,14.70
2018-01-28T06:18:31.886Z,14.90
2018-01-28T06:20:58.230Z,15.30
2018-01-28T06:23:24.598Z,13.73
2018-01-28T06:25:51.653Z,14.23
2018-01-28T06:28:18.676Z,12.63
2018-01-28T06:30:44.975Z,12.17
2018-01-28T06:33:11.260Z,13.20
2018-01-28T06:35:38.312Z,11.73
2018-01-28T06:38:05.344Z,11.73
2018-01-28T06:40:31.670Z,11.50
2018-01-28T06:42:57.952Z,11.00
2018-01-28T06:45:24.227Z,11.40
2018-01-28T06:47:52.052Z,9.70
2018-01-28T06:50:18.313Z,10.10
2018-01-28T06:52:44.619Z,9.90
2018-01-28T06:55:10.892Z,7.83
2018-01-28T06:57:37.233Z,9.90
2018-01-28T07:00:04.274Z,7.60
2018-01-28T07:02:31.319Z,7.43
2018-01-28T07:04:58.345Z,8.07
2018-01-28T07:07:24.624Z,7.60
2018-01-28T07:09:50.903Z,6.93
2018-01-28T07:12:17.179Z,6.60
2018-01-28T07:14:43.490Z,6.40
2018-01-28T07:17:10.534Z,6.57
2018-01-28T07:19:37.567Z,6.40
2018-01-28T07:22:04.625Z,6.90
2018-01-28T07:24:31.662Z,6.20
2018-01-28T07:26:58.713Z,5.63
2018-01-28T07:29:25.770Z,5.80
2018-01-28T07:31:52.817Z,6.33
2018-01-28T07:34:19.864Z,7.00
2018-01-28T07:36:46.917Z,5.87
2018-01-28T07:39:13.939Z,6.50
2018-01-28T07:41:40.229Z,5.80
2018-01-28T07:44:06.557Z,6.33
2018-01-28T07:46:32.827Z,5.93
2018-01-28T07:48:59.115Z,7.07
2018-01-28T07:51:25.384Z,5.33
2018-01-28T07:53:51.700Z,5.50
2018-01-28T07:56:18.003Z,5.00
2018-01-28T07:58:44.332Z,5.30
2018-01-28T08:01:10.601Z,5.37
2018-01-28T08:03:36.883Z,5.80
2018-01-28T08:06:03.205Z,6.17
2018-01-28T08:08:31.462Z,5.30
2018-01-28T08:11:02.480Z,5.80
2018-01-28T08:13:45.440Z,6.60
2018-01-28T08:16:11.728Z,6.00
2018-01-28T08:18:38.014Z,5.67
2018-01-28T08:21:04.304Z,6.70
2018-01-28T08:23:30.633Z,5.40
2018-01-28T08:25:56.916Z,5.07
2018-01-28T08:28:23.225Z,5.70
2018-01-28T08:30:49.753Z,5.80
2018-01-28T08:33:16.157Z,6.33
2018-01-28T08:35:42.498Z,6.53
2018-01-28T08:38:09.548Z,5.80
2018-01-28T08:40:35.836Z,6.53
2018-01-28T08:43:02.141Z,6.57
2018-01-28T08:45:28.477Z,6.10
2018-01-28T08:47:55.097Z,5.40
2018-01-28T08:50:21.400Z,5.93
2018-01-28T08:52:48.549Z,8.00
2018-01-28T08:55:15.647Z,6.00
2018-01-28T08:57:42.861Z,6.03
2018-01-28T09:00:10.839Z,5.03
2018-01-28T09:02:37.197Z,7.07
2018-01-28T09:05:03.733Z,7.07
2018-01-28T09:07:30.770Z,6.43
2018-01-28T09:09:57.104Z,8.40
2018-01-28T09:12:23.422Z,7.43
2018-01-28T09:14:49.724Z,6.10
2018-01-28T09:17:16.768Z,6.03
2018-01-28T09:19:43.836Z,7.07
2018-01-28T09:22:10.246Z,6.90
2018-01-28T09:24:37.325Z,5.60
2018-01-28T09:27:03.637Z,6.70
2018-01-28T09:29:30.131Z,7.90
2018-01-28T09:31:57.885Z,7.63
2018-01-28T09:34:24.179Z,8.47
2018-01-28T09:36:50.521Z,7.70
2018-01-28T09:39:16.828Z,7.50
2018-01-28T09:41:43.165Z,8.03
2018-01-28T09:44:09.483Z,8.87
2018-01-28T09:46:35.877Z,7.07
2018-01-28T09:49:02.173Z,7.60
2018-01-28T09:51:28.892Z,6.70
2018-01-28T09:53:55.177Z,6.37
2018-01-28T09:56:21.462Z,7.00
2018-01-28T09:58:47.806Z,7.50
2018-01-28T10:01:14.137Z,7.70
2018-01-28T10:03:40.461Z,7.13
2018-01-28T10:06:06.808Z,8.03
2018-01-28T10:08:33.161Z,6.97
2018-01-28T10:11:00.376Z,7.10
2018-01-28T10:13:26.684Z,7.43
2018-01-28T10:15:52.981Z,7.10
2018-01-28T10:18:19.308Z,6.60
2018-01-28T10:20:45.617Z,8.70
2018-01-28T10:23:11.894Z,7.40
2018-01-28T10:25:38.925Z,7.60
2018-01-28T10:28:05.972Z,6.40
2018-01-28T10:30:33.049Z,5.90
2018-01-28T10:32:59.322Z,6.17
2018-01-28T10:35:25.608Z,5.97
2018-01-28T10:37:51.909Z,6.73
2018-01-28T10:40:18.959Z,7.17
2018-01-28T10:42:46.034Z,6.23
2018-01-28T10:45:12.352Z,5.80
2018-01-28T10:47:38.648Z,7.20
2018-01-28T10:50:04.940Z,6.93
2018-01-28T10:52:31.249Z,5.83
2018-01-28T10:54:57.527Z,7.53
2018-01-28T10:57:23.846Z,6.30
2018-01-28T10:59:50.178Z,6.83
2018-01-28T11:02:16.595Z,6.30
2018-01-28T11:04:42.958Z,6.03
2018-01-28T11:07:10.026Z,6.77
2018-01-28T11:09:36.333Z,6.63
2018-01-28T11:12:02.643Z,5.23
2018-01-28T11:14:28.944Z,5.53
2018-01-28T11:16:55.273Z,5.80
2018-01-28T11:19:21.591Z,6.00
2018-01-28T11:21:47.921Z,5.47
2018-01-28T11:24:14.958Z,6.07
2018-01-28T11:26:41.978Z,6.07
2018-01-28T11:29:09.040Z,5.63
2018-01-28T11:31:36.060Z,5.50
2018-01-28T11:34:02.353Z,5.60
2018-01-28T11:36:28.624Z,6.17
2018-01-28T11:38:54.939Z,4.87
2018-01-28T11:41:21.251Z,5.03
2018-01-28T11:43:47.583Z,5.57
2018-01-28T11:46:13.875Z,4.70
2018-01-28T11:48:40.918Z,5.10
2018-01-28T11:51:07.977Z,4.83
2018-01-28T11:53:35.066Z,4.83
2018-01-28T11:56:01.397Z,5.80
2018-01-28T11:58:27.696Z,5.50
2018-01-28T12:00:53.981Z,5.70
2018-01-28T12:03:20.260Z,5.63
2018-01-28T12:05:46.551Z,5.00
2018-01-28T12:08:12.837Z,5.23
2018-01-28T12:10:39.120Z,4.80
2018-01-28T12:13:06.146Z,5.53
2018-01-28T12:15:32.526Z,6.00
2018-01-28T12:17:58.809Z,5.83
2018-01-28T12:20:25.092Z,5.70
2018-01-28T12:22:51.438Z,5.97
2018-01-28T12:25:17.799Z,5.90
2018-01-28T12:27:44.092Z,5.40
2018-01-28T12:30:10.402Z,6.07
2018-01-28T12:32:36.708Z,5.60
2018-01-28T12:35:03.766Z,5.40
2018-01-28T12:37:30.796Z,6.13
2018-01-28T12:39:57.905Z,6.73
2018-01-28T12:42:24.210Z,6.23
2018-01-28T12:44:50.526Z,6.30
2018-01-28T12:47:17.925Z,6.57
2018-01-28T12:49:44.295Z,5.60
2018-01-28T12:52:11.364Z,6.20
2018-01-28T12:54:37.667Z,5.63
2018-01-28T12:57:04.696Z,5.30
2018-01-28T12:59:30.985Z,5.97
2018-01-28T13:01:57.314Z,6.90
2018-01-28T13:04:23.671Z,6.27
2018-01-28T13:06:49.994Z,5.80
2018-01-28T13:09:16.278Z,6.00
2018-01-28T13:11:42.652Z,5.30
2018-01-28T13:14:08.971Z,5.70
2018-01-28T13:16:35.272Z,5.93
2018-01-28T13:19:02.357Z,6.50
2018-01-28T13:21:28.669Z,5.57
2018-01-28T13:23:54.959Z,4.60
2018-01-28T13:26:22.053Z,6.13
2018-01-28T13:28:48.402Z,5.97
2018-01-28T13:31:14.744Z,5.67
2018-01-28T13:33:41.112Z,5.43
2018-01-28T13:36:08.161Z,6.20
2018-01-28T13:38:34.449Z,5.23
2018-01-28T13:41:00.825Z,6.80
2018-01-28T13:43:27.915Z,4.90
2018-01-28T13:45:54.186Z,5.13
2018-01-28T13:48:20.486Z,5.70
2018-01-28T13:50:46.839Z,5.67
2018-01-28T13:53:13.270Z,6.53
2018-01-28T13:55:39.728Z,6.60
2018-01-28T13:58:06.122Z,6.40
2018-01-28T14:00:33.243Z,5.97
2018-01-28T14:02:59.616Z,5.67
2018-01-28T14:05:26.660Z,5.67
2018-01-28T14:07:52.953Z,6.37
2018-01-28T14:10:19.231Z,5.10
2018-01-28T14:12:46.348Z,6.53
2018-01-28T14:15:12.683Z,6.90
2018-01-28T14:17:39.045Z,6.40
2018-01-28T14:20:06.122Z,7.07
2018-01-28T14:22:32.455Z,7.27
2018-01-28T14:24:58.804Z,7.37
2018-01-28T14:27:25.192Z,7.57
2018-01-28T14:29:52.254Z,7.57
2018-01-28T14:32:19.383Z,8.63
2018-01-28T14:34:46.472Z,6.40
2018-01-28T14:37:12.784Z,6.33
2018-01-28T14:39:39.138Z,7.87
2018-01-28T14:42:05.585Z,6.37
2018-01-28T14:44:31.887Z,6.50
2018-01-28T14:46:58.228Z,6.93
2018-01-28T14:49:24.594Z,6.37
2018-01-28T14:51:50.979Z,6.97
2018-01-28T14:54:17.367Z,6.90
2018-01-28T14:56:44.477Z,7.87
2018-01-28T14:59:10.829Z,6.53
2018-01-28T15:01:37.940Z,6.80
2018-01-28T15:04:04.307Z,7.30
2018-01-28T15:06:30.608Z,7.30
2018-01-28T15:08:57.451Z,6.73
2018-01-28T15:11:23.958Z,7.93
2018-01-28T15:13:50.986Z,7.93
2018-01-28T15:16:18.072Z,6.80
2018-01-28T15:18:44.507Z,5.97
2018-01-28T15:21:10.784Z,7.07
2018-01-28T15:23:37.123Z,6.60
2018-01-28T15:26:04.189Z,7.70
2018-01-28T15:28:31.214Z,7.43
2018-01-28T15:30:58.306Z,7.77
2018-01-28T15:33:24.613Z,7.63
2018-01-28T15:35:51.700Z,7.27
2018-01-28T15:38:18.039Z,7.23
2018-01-28T15:40:44.342Z,7.40
2018-01-28T15:43:10.695Z,8.70
2018-01-28T15:45:37.004Z,8.07
2018-01-28T15:48:03.358Z,6.83
2018-01-28T15:50:29.661Z,6.97
2018-01-28T15:52:55.951Z,7.77
2018-01-28T15:55:22.308Z,9.03
2018-01-28T15:57:49.359Z,6.93
2018-01-28T16:00:15.691Z,7.40
2018-01-28T16:02:42.012Z,8.30
2018-01-28T16:05:09.133Z,7.00
2018-01-28T16:07:35.481Z,9.03
2018-01-28T16:10:02.565Z,7.73
2018-01-28T16:12:28.840Z,7.40
2018-01-28T16:14:55.128Z,7.40
2018-01-28T16:17:21.462Z,8.60
2018-01-28T16:19:47.766Z,7.40
2018-01-28T16:22:14.793Z,7.17
2018-01-28T16:24:41.893Z,7.40
2018-01-28T16:27:08.244Z,7.80
2018-01-28T16:29:34.607Z,8.40
2018-01-28T16:32:01.666Z,7.23
2018-01-28T16:34:28.718Z,8.57
2018-01-28T16:36:55.008Z,8.40
2018-01-28T16:39:21.772Z,8.07
2018-01-28T16:41:48.958Z,7.93
2018-01-28T16:44:15.278Z,7.57
2018-01-28T16:46:41.616Z,7.93
2018-01-28T16:49:07.962Z,8.20
2018-01-28T16:51:34.303Z,7.50
2018-01-28T16:54:00.642Z,7.53
2018-01-28T16:56:26.988Z,7.47
2018-01-28T16:58:53.290Z,7.90
2018-01-28T17:01:19.673Z,8.13
2018-01-28T17:03:45.984Z,8.20
2018-01-28T17:06:12.301Z,10.30
2018-01-28T17:08:38.589Z,8.20
2018-01-28T17:11:04.957Z,8.60
2018-01-28T17:13:31.276Z,8.37
2018-01-28T17:15:57.588Z,9.00
2018-01-28T17:18:24.007Z,9.73
2018-01-28T17:20:50.513Z,9.10
2018-01-28T17:23:16.870Z,9.80
2018-01-28T17:25:43.205Z,9.20
2018-01-28T17:28:09.513Z,9.40
2018-01-28T17:30:35.907Z,10.70
2018-01-28T17:33:02.237Z,9.83
2018-01-28T17:35:34.874Z,10.50
2018-01-28T17:38:01.244Z,10.93
2018-01-28T17:40:27.645Z,10.23
2018-01-28T17:42:53.959Z,10.77
2018-01-28T17:45:20.352Z,10.63
2018-01-28T17:47:46.685Z,11.33
2018-01-28T17:50:13.733Z,11.87
2018-01-28T17:52:40.129Z,11.50
2018-01-28T17:55:06.493Z,11.43
2018-01-28T17:57:33.577Z,11.13
2018-01-28T17:59:59.913Z,12.67
2018-01-28T18:02:26.217Z,11.63
2018-01-28T18:04:52.571Z,12.33
2018-01-28T18:07:18.934Z,11.50
2018-01-28T18:09:45.283Z,12.30
2018-01-28T18:12:13.055Z,11.30
2018-01-28T18:14:40.108Z,11.20
2018-01-28T18:17:06.553Z,10.70
2018-01-28T18:19:32.873Z,11.00
2018-01-28T18:21:59.196Z,11.50
2018-01-28T18:24:25.521Z,11.10
2018-01-28T18:26:51.815Z,11.40
2018-01-28T18:29:18.183Z,11.17
2018-01-28T18:31:45.282Z,10.70
2018-01-28T18:34:11.586Z,11.17
2018-01-28T18:36:37.938Z,11.47
2018-01-28T18:39:04.311Z,11.37
2018-01-28T18:41:30.664Z,10.57
2018-01-28T18:43:57.794Z,10.67
2018-01-28T18:46:24.133Z,11.67
2018-01-28T18:48:50.524Z,10.77
2018-01-28T18:51:16.881Z,10.50
2018-01-28T18:53:43.338Z,11.30
2018-01-28T18:56:09.714Z,11.43
2018-01-28T18:58:36.078Z,10.90
2018-01-28T19:01:02.454Z,10.70
2018-01-28T19:03:28.914Z,11.40
2018-01-28T19:05:55.241Z,12.80
2018-01-28T19:08:21.568Z,14.00
2018-01-28T19:10:47.951Z,14.43
2018-01-28T19:13:14.316Z,13.17
2018-01-28T19:15:40.800Z,13.27
2018-01-28T19:18:07.166Z,12.40
2018-01-28T19:20:34.188Z,12.10
2018-01-28T19:23:00.609Z,12.90
2018-01-28T19:25:26.913Z,12.37
2018-01-28T19:27:53.247Z,13.13
2018-01-28T19:30:19.587Z,14.43
2018-01-28T19:32:45.915Z,13.23
2018-01-28T19:35:12.290Z,11.80
2018-01-28T19:37:39.335Z,11.90
2018-01-28T19:40:06.451Z,14.37
2018-01-28T19:42:32.811Z,13.80
2018-01-28T19:44:59.835Z,12.97
2018-01-28T19:47:26.671Z,13.97
2018-01-28T19:49:53.073Z,12.83
2018-01-28T19:52:19.449Z,12.03
2018-01-28T19:54:45.967Z,12.70
2018-01-28T19:57:12.339Z,12.27
2018-01-28T19:59:41.077Z,12.57
2018-01-28T20:02:07.449Z,12.30
2018-01-28T20:04:34.555Z,11.97
2018-01-28T20:07:00.916Z,12.13
2018-01-28T20:09:28.735Z,12.67
2018-01-28T20:11:55.072Z,11.87
2018-01-28T20:14:21.451Z,11.00
2018-01-28T20:16:47.791Z,11.20
2018-01-28T20:19:15.052Z,11.27
2018-01-28T20:21:42.191Z,11.67
2018-01-28T20:24:09.283Z,10.20
2018-01-28T20:26:35.645Z,10.37
2018-01-28T20:29:01.967Z,10.63
2018-01-28T20:31:28.433Z,11.10
2018-01-28T20:33:55.464Z,10.73
2018-01-28T20:36:21.838Z,10.60
2018-01-28T20:38:48.188Z,10.20
2018-01-28T20:41:14.532Z,10.63
2018-01-28T20:43:40.807Z,9.20
2018-01-28T20:46:07.871Z,8.50
2018-01-28T20:48:34.966Z,9.73
2018-01-28T20:51:01.333Z,8.80
2018-01-28T20:53:27.664Z,8.20
2018-01-28T20:55:54.298Z,8.60
2018-01-28T20:58:22.212Z,8.30
2018-01-28T21:00:48.903Z,8.47
2018-01-28T21:03:16.013Z,8.30
2018-01-28T21:05:42.371Z,8.40
2018-01-28T21:08:08.717Z,7.90
2018-01-28T21:10:35.045Z,7.77
2018-01-28T21:13:01.381Z,8.30
2018-01-28T21:15:28.482Z,7.50
2018-01-28T21:17:54.872Z,7.10
2018-01-28T21:20:21.965Z,6.80
2018-01-28T21:22:48.327Z,7.03
2018-01-28T21:25:14.652Z,6.60
2018-01-28T21:27:41.004Z,5.80
2018-01-28T21:30:08.093Z,5.90
2018-01-28T21:32:34.448Z,6.40
2018-01-28T21:35:00.787Z,5.30
2018-01-28T21:37:27.064Z,5.70
2018-01-28T21:39:53.390Z,5.10
2018-01-28T21:42:20.450Z,5.17
2018-01-28T21:44:48.293Z,5.23
2018-01-28T21:47:15.381Z,5.03
2018-01-28T21:49:41.733Z,4.53
2018-01-28T21:52:08.077Z,4.37
2018-01-28T21:54:34.488Z,4.50
2018-01-28T21:57:00.826Z,4.70
2018-01-28T21:59:27.207Z,4.20
2018-01-28T22:01:54.284Z,4.77
2018-01-28T22:04:20.650Z,4.20
2018-01-28T22:06:47.022Z,4.60
2018-01-28T22:09:16.318Z,4.20
2018-01-28T22:11:43.366Z,3.83
2018-01-28T22:14:09.725Z,4.20
2018-01-28T22:16:36.095Z,3.67
2018-01-28T22:19:02.467Z,3.33
2018-01-28T22:21:28.814Z,3.50
2018-01-28T22:23:55.150Z,3.07
2018-01-28T22:26:21.445Z,3.10
2018-01-28T22:28:48.523Z,3.17
2018-01-28T22:31:14.869Z,2.70
2018-01-28T22:33:41.200Z,3.20
2018-01-28T22:36:07.493Z,3.07
2018-01-28T22:38:33.856Z,2.90
2018-01-28T22:41:00.307Z,2.97
2018-01-28T22:43:26.668Z,2.90
2018-01-28T22:45:53.776Z,2.90
2018-01-28T22:48:20.211Z,2.63
2018-01-28T22:50:46.562Z,3.20
2018-01-28T22:53:12.895Z,3.20
2018-01-28T22:55:39.244Z,2.77
2018-01-28T22:58:06.263Z,3.43
2018-01-28T23:00:32.572Z,2.90
2018-01-28T23:02:58.918Z,3.17
2018-01-28T23:05:25.249Z,3.10
2018-01-28T23:07:51.583Z,3.17
2018-01-28T23:10:17.867Z,3.47
2018-01-28T23:12:44.214Z,3.33
2018-01-28T23:15:10.505Z,3.17
2018-01-28T23:17:36.867Z,3.17
2018-01-28T23:20:03.220Z,3.27
2018-01-28T23:22:29.575Z,4.30
2018-01-28T23:24:55.898Z,4.30
2018-01-28T23:27:22.200Z,4.50
2018-01-28T23:29:48.517Z,3.50
2018-01-28T23:32:14.833Z,2.97
2018-01-28T23:34:41.116Z,3.93
2018-01-28T23:37:07.437Z,3.60
2018-01-28T23:39:33.755Z,3.20
2018-01-28T23:42:00.092Z,3.37
2018-01-28T23:44:26.380Z,3.10
2018-01-28T23:46:52.707Z,3.00
2018-01-28T23:49:19.011Z,3.40
2018-01-28T23:51:45.324Z,3.40
2018-01-28T23:54:11.618Z,3.50
2018-01-28T23:56:37.918Z,3.80
2018-01-28T23:59:04.971Z,3.20
